Time;durP1;ratioP1;P1;durP2;ratioP2;P2;SDS_P1;SDS_P2;PMS_P1;PMS_P2;Temp;Humidity;BMP_temperature;BMP_pressure;BME280_temperature;BME280_humidity;BME280_pressure;Samples;Min_cycle;Max_cycle;Signal;HPM_P1;HPM_P2
2023/08/15 00:01:18;;;;;;;14.90;13.70;;;20.60;99.90;;;;;;4995014;28;20284;-78
2023/08/15 00:03:47;;;;;;;15.70;14.43;;;20.60;99.90;;;;;;5000206;28;20204;-78
2023/08/15 00:06:14;;;;;;;14.83;13.63;;;20.60;99.90;;;;;;5000964;28;20197;-78
2023/08/15 00:08:41;;;;;;;13.83;12.83;;;20.60;99.90;;;;;;5004854;28;20193;-78
2023/08/15 00:11:07;;;;;;;14.40;13.50;;;20.50;99.90;;;;;;4998434;28;20272;-78
2023/08/15 00:13:34;;;;;;;14.77;13.77;;;20.50;99.90;;;;;;5002447;28;20291;-78
2023/08/15 00:16:01;;;;;;;15.03;13.93;;;20.50;99.90;;;;;;4998564;28;20657;-77
2023/08/15 00:18:28;;;;;;;13.87;12.97;;;20.50;99.90;;;;;;4999557;28;20264;-78
2023/08/15 00:20:56;;;;;;;14.07;13.10;;;20.40;99.90;;;;;;5000192;28;20209;-78
2023/08/15 00:23:23;;;;;;;14.10;13.17;;;20.40;99.90;;;;;;4999464;28;20196;-78
2023/08/15 00:25:50;;;;;;;14.47;13.23;;;20.40;99.90;;;;;;4999367;28;20199;-78
2023/08/15 00:28:16;;;;;;;14.17;13.17;;;20.40;99.90;;;;;;5000841;28;20223;-78
2023/08/15 00:30:43;;;;;;;14.07;13.00;;;20.40;99.90;;;;;;5001498;28;20221;-78
2023/08/15 00:33:10;;;;;;;14.33;13.27;;;20.40;99.90;;;;;;4997696;28;20200;-78
2023/08/15 00:35:37;;;;;;;14.70;13.70;;;20.40;99.90;;;;;;4998030;28;20683;-78
2023/08/15 00:38:05;;;;;;;14.70;13.70;;;20.40;99.90;;;;;;4999186;28;20208;-78
2023/08/15 00:40:32;;;;;;;15.20;14.20;;;20.40;99.90;;;;;;4999919;28;20228;-78
2023/08/15 00:42:59;;;;;;;15.37;14.30;;;20.40;99.90;;;;;;4997981;28;20588;-78
2023/08/15 00:45:26;;;;;;;15.80;14.60;;;20.40;99.90;;;;;;4999379;28;20203;-78
2023/08/15 00:47:53;;;;;;;15.67;14.67;;;20.40;99.90;;;;;;4994136;28;20674;-78
2023/08/15 00:50:20;;;;;;;16.20;15.00;;;20.50;99.90;;;;;;4996691;28;20707;-77
2023/08/15 00:52:47;;;;;;;16.33;15.10;;;20.50;99.90;;;;;;4992936;28;20225;-78
2023/08/15 00:55:16;;;;;;;16.07;14.97;;;20.40;99.90;;;;;;4998448;28;20203;-78
2023/08/15 00:57:43;;;;;;;15.67;14.63;;;20.50;99.90;;;;;;4999688;28;20205;-78
2023/08/15 01:00:11;;;;;;;15.23;14.23;;;20.40;99.90;;;;;;4999317;28;20230;-78
2023/08/15 01:02:38;;;;;;;15.30;14.30;;;20.40;99.90;;;;;;5005064;28;20208;-78
2023/08/15 01:05:07;;;;;;;15.83;14.73;;;20.50;99.90;;;;;;4997500;28;20332;-78
2023/08/15 01:07:35;;;;;;;16.50;15.30;;;20.40;99.90;;;;;;5000202;28;20212;-78
2023/08/15 01:10:02;;;;;;;15.97;14.87;;;20.40;99.90;;;;;;5004963;28;20225;-78
2023/08/15 01:12:37;;;;;;;16.23;15.13;;;20.40;99.90;;;;;;4993603;28;20707;-77
2023/08/15 01:15:07;;;;;;;16.07;14.97;;;20.40;99.90;;;;;;4998364;28;20265;-78
2023/08/15 01:17:38;;;;;;;16.40;15.27;;;20.40;99.90;;;;;;4997730;28;20209;-78
2023/08/15 01:20:09;;;;;;;15.63;14.50;;;20.40;99.90;;;;;;4993867;28;20308;-78
2023/08/15 01:22:42;;;;;;;15.60;14.60;;;20.30;99.90;;;;;;5005692;28;20193;-77
2023/08/15 01:25:10;;;;;;;15.93;14.83;;;20.30;99.90;;;;;;5008215;28;20193;-78
2023/08/15 01:27:37;;;;;;;15.97;14.93;;;20.30;99.90;;;;;;5012084;28;20258;-78
2023/08/15 01:30:05;;;;;;;15.80;14.70;;;20.30;99.90;;;;;;5004989;28;20254;-78
2023/08/15 01:32:38;;;;;;;15.20;14.30;;;20.30;99.90;;;;;;4997605;28;20209;-78
2023/08/15 01:35:10;;;;;;;15.70;14.70;;;20.30;99.90;;;;;;4998357;28;20193;-78
2023/08/15 01:37:40;;;;;;;16.07;14.97;;;20.20;99.90;;;;;;4992875;28;20216;-78
2023/08/15 01:40:11;;;;;;;16.77;15.57;;;20.20;99.90;;;;;;4997176;28;20216;-78
2023/08/15 01:42:41;;;;;;;16.40;15.23;;;20.20;99.90;;;;;;4995388;28;20256;-77
2023/08/15 01:45:09;;;;;;;16.73;15.53;;;20.20;99.90;;;;;;4997818;28;20675;-78
2023/08/15 01:47:36;;;;;;;16.63;15.53;;;20.20;99.90;;;;;;5000612;28;20197;-77
2023/08/15 01:50:03;;;;;;;16.63;15.53;;;20.10;99.90;;;;;;5000004;28;20217;-78
2023/08/15 01:52:30;;;;;;;16.90;15.80;;;20.10;99.90;;;;;;4995971;28;20649;-78
2023/08/15 01:54:56;;;;;;;16.67;15.50;;;20.10;99.90;;;;;;4998815;28;20212;-78
2023/08/15 01:57:25;;;;;;;16.70;15.50;;;20.00;99.90;;;;;;4993141;28;20201;-78
2023/08/15 01:59:52;;;;;;;16.50;15.40;;;20.00;99.90;;;;;;5003080;28;20225;-78
2023/08/15 02:02:20;;;;;;;17.10;15.80;;;20.00;99.90;;;;;;4991536;28;20676;-78
2023/08/15 02:04:47;;;;;;;17.23;15.80;;;20.00;99.90;;;;;;5009323;28;20691;-78
2023/08/15 02:07:13;;;;;;;17.43;16.23;;;19.90;99.90;;;;;;4995527;28;20629;-77
2023/08/15 02:09:41;;;;;;;17.47;16.37;;;19.90;99.90;;;;;;5000734;28;20212;-77
2023/08/15 02:12:08;;;;;;;17.03;15.93;;;19.90;99.90;;;;;;4998176;28;20220;-78
2023/08/15 02:14:36;;;;;;;17.73;16.43;;;19.90;99.90;;;;;;4999550;28;20215;-78
2023/08/15 02:17:03;;;;;;;17.50;16.07;;;19.90;99.90;;;;;;4995036;28;20225;-78
2023/08/15 02:19:31;;;;;;;17.00;15.90;;;19.80;99.90;;;;;;4996380;28;20205;-78
2023/08/15 02:21:58;;;;;;;17.73;16.43;;;19.80;99.90;;;;;;4993773;28;20277;-78
2023/08/15 02:24:25;;;;;;;16.93;15.63;;;19.80;99.90;;;;;;4995331;28;20255;-78
2023/08/15 02:26:52;;;;;;;15.97;14.97;;;19.80;99.90;;;;;;4998778;28;20755;-77
2023/08/15 02:29:18;;;;;;;16.53;15.40;;;19.80;99.90;;;;;;4995638;28;20215;-78
2023/08/15 02:31:48;;;;;;;16.33;15.13;;;19.80;99.90;;;;;;4996478;28;20627;-78
2023/08/15 02:34:17;;;;;;;17.10;15.90;;;19.80;99.90;;;;;;4997943;28;20205;-78
2023/08/15 02:36:46;;;;;;;17.00;15.90;;;19.80;99.90;;;;;;4994853;28;20644;-78
2023/08/15 02:39:13;;;;;;;17.17;15.87;;;19.80;99.90;;;;;;4998572;28;20236;-78
2023/08/15 02:41:40;;;;;;;16.13;15.13;;;19.70;99.90;;;;;;4995999;28;20277;-80
2023/08/15 02:44:07;;;;;;;16.30;15.30;;;19.70;99.90;;;;;;4999674;28;20224;-78
2023/08/15 02:46:34;;;;;;;17.67;16.33;;;19.70;99.90;;;;;;4996326;28;20215;-78
2023/08/15 02:49:02;;;;;;;17.67;16.47;;;19.70;99.90;;;;;;4997680;28;20724;-78
2023/08/15 02:51:29;;;;;;;16.77;15.67;;;19.70;99.90;;;;;;5021906;28;20211;-80
2023/08/15 02:53:56;;;;;;;16.63;15.50;;;19.70;99.90;;;;;;4998821;28;20188;-80
2023/08/15 02:56:23;;;;;;;16.77;15.57;;;19.70;99.90;;;;;;5001516;28;20193;-79
2023/08/15 02:58:50;;;;;;;17.20;16.00;;;19.70;99.90;;;;;;5005196;28;20207;-80
2023/08/15 03:01:17;;;;;;;17.37;16.27;;;19.70;99.90;;;;;;5011624;28;20224;-81
2023/08/15 03:03:44;;;;;;;17.20;16.10;;;19.60;99.90;;;;;;5005970;28;20261;-79
2023/08/15 03:06:12;;;;;;;17.10;16.00;;;19.60;99.90;;;;;;5012985;28;20429;-79
2023/08/15 03:08:39;;;;;;;17.37;16.27;;;19.60;99.90;;;;;;5000591;28;20202;-79
2023/08/15 03:11:06;;;;;;;17.33;16.10;;;19.50;99.90;;;;;;4996002;28;20217;-79
2023/08/15 03:13:33;;;;;;;17.17;16.07;;;19.50;99.90;;;;;;4997740;28;20235;-79
2023/08/15 03:16:00;;;;;;;17.03;15.93;;;19.50;99.90;;;;;;5000697;28;20224;-78
2023/08/15 03:18:29;;;;;;;16.90;15.70;;;19.40;99.90;;;;;;5003689;28;20594;-78
2023/08/15 03:20:59;;;;;;;17.13;16.03;;;19.40;99.90;;;;;;5004470;28;20323;-79
2023/08/15 03:23:27;;;;;;;18.13;16.73;;;19.40;99.90;;;;;;5016252;28;20199;-78
2023/08/15 03:25:58;;;;;;;16.37;15.17;;;19.30;99.90;;;;;;5006905;28;20219;-79
2023/08/15 03:28:29;;;;;;;17.70;16.50;;;19.30;99.90;;;;;;5009287;28;20211;-79
2023/08/15 03:30:56;;;;;;;16.13;15.13;;;19.30;99.90;;;;;;5008800;28;20651;-79
2023/08/15 03:33:25;;;;;;;18.30;17.00;;;19.30;99.90;;;;;;5004217;28;20705;-79
2023/08/15 03:35:52;;;;;;;17.77;16.60;;;19.30;99.90;;;;;;5011073;28;20289;-79
2023/08/15 03:38:21;;;;;;;16.87;15.77;;;19.30;99.90;;;;;;5001846;28;20274;-78
2023/08/15 03:41:00;;;;;;;18.30;17.10;;;19.30;99.90;;;;;;5012829;28;20723;-79
2023/08/15 03:43:26;;;;;;;18.30;16.90;;;19.30;99.90;;;;;;5014182;28;20206;-79
2023/08/15 03:45:53;;;;;;;18.00;16.70;;;19.30;99.90;;;;;;5013788;28;20206;-79
2023/08/15 03:48:20;;;;;;;17.77;16.67;;;19.30;99.90;;;;;;5014208;28;20612;-79
2023/08/15 03:50:47;;;;;;;18.37;17.00;;;19.30;99.90;;;;;;5012347;28;20230;-79
2023/08/15 03:53:14;;;;;;;17.50;16.30;;;19.30;99.90;;;;;;5008409;28;20227;-79
2023/08/15 03:55:42;;;;;;;18.63;17.17;;;19.30;99.90;;;;;;5010713;28;20243;-79
2023/08/15 03:58:10;;;;;;;18.73;17.53;;;19.30;99.90;;;;;;5007205;28;20195;-79
2023/08/15 04:00:37;;;;;;;19.47;17.97;;;19.30;99.90;;;;;;5013781;28;20580;-79
2023/08/15 04:03:04;;;;;;;19.23;17.77;;;19.30;99.90;;;;;;5013082;28;20306;-79
2023/08/15 04:05:31;;;;;;;18.87;17.47;;;19.30;99.90;;;;;;5013716;28;20211;-79
2023/08/15 04:07:58;;;;;;;18.40;17.00;;;19.30;99.90;;;;;;5003637;28;20211;-78
2023/08/15 04:10:24;;;;;;;19.10;17.70;;;19.30;99.90;;;;;;5009202;28;20321;-80
2023/08/15 04:12:51;;;;;;;19.80;18.30;;;19.30;99.90;;;;;;5012890;28;20788;-79
2023/08/15 04:15:20;;;;;;;19.60;18.20;;;19.20;99.90;;;;;;5015130;28;20215;-79
2023/08/15 04:17:47;;;;;;;18.63;17.27;;;19.20;99.90;;;;;;5012328;28;20190;-78
2023/08/15 04:20:14;;;;;;;20.00;18.50;;;19.20;99.90;;;;;;5014506;28;20608;-78
2023/08/15 04:22:41;;;;;;;19.47;18.00;;;19.20;99.90;;;;;;5006749;28;20724;-78
2023/08/15 04:25:09;;;;;;;19.83;18.23;;;19.20;99.90;;;;;;5015565;28;20199;-79
2023/08/15 04:27:36;;;;;;;18.93;17.63;;;19.20;99.90;;;;;;5014231;28;20214;-79
2023/08/15 04:30:04;;;;;;;19.87;18.30;;;19.20;99.90;;;;;;5012692;28;21144;-79
2023/08/15 04:32:32;;;;;;;19.90;18.40;;;19.20;99.90;;;;;;5014712;28;20231;-79
2023/08/15 04:34:59;;;;;;;18.60;17.30;;;19.20;99.90;;;;;;5013034;28;20213;-79
2023/08/15 04:37:26;;;;;;;19.30;18.00;;;19.20;99.90;;;;;;5011480;28;20202;-79
2023/08/15 04:39:53;;;;;;;19.87;18.37;;;19.20;99.90;;;;;;5007890;28;20207;-78
2023/08/15 04:42:20;;;;;;;19.10;17.70;;;19.20;99.90;;;;;;5009777;28;20725;-79
2023/08/15 04:44:47;;;;;;;19.00;17.67;;;19.20;99.90;;;;;;5013713;28;20210;-79
2023/08/15 04:47:15;;;;;;;20.07;18.57;;;19.30;99.90;;;;;;5014762;28;20207;-80
2023/08/15 04:49:43;;;;;;;19.30;17.90;;;19.30;99.90;;;;;;5014257;28;20215;-79
2023/08/15 04:52:10;;;;;;;19.47;17.97;;;19.40;99.90;;;;;;5013999;28;20632;-79
2023/08/15 04:54:37;;;;;;;19.40;17.87;;;19.40;99.90;;;;;;5014585;28;20239;-79
2023/08/15 04:57:04;;;;;;;19.07;17.77;;;19.50;99.90;;;;;;5013853;28;20227;-80
2023/08/15 04:59:34;;;;;;;19.00;17.70;;;19.70;99.90;;;;;;5010617;28;20201;-81
2023/08/15 05:02:01;;;;;;;19.13;17.73;;;19.80;99.90;;;;;;5008145;28;20481;-80
2023/08/15 05:04:28;;;;;;;18.57;17.27;;;19.90;99.90;;;;;;5007714;28;21004;-82
2023/08/15 05:06:57;;;;;;;18.23;16.87;;;20.10;99.90;;;;;;5006112;28;20201;-81
2023/08/15 05:09:24;;;;;;;18.70;17.40;;;20.20;99.90;;;;;;5005774;28;20229;-82
2023/08/15 05:23:42;;;;;;;17.73;16.53;;;20.50;99.90;;;;;;4962644;28;20204;-81
2023/08/15 05:26:09;;;;;;;17.80;16.40;;;20.70;99.90;;;;;;4953924;28;20721;-78
2023/08/15 05:28:38;;;;;;;17.77;16.47;;;20.70;99.90;;;;;;4953513;28;20213;-81
2023/08/15 05:31:05;;;;;;;18.10;16.80;;;20.80;99.90;;;;;;4955559;28;20866;-82
2023/08/15 05:33:34;;;;;;;18.07;16.67;;;20.90;99.90;;;;;;4958419;28;20218;-82
2023/08/15 05:36:01;;;;;;;17.53;16.33;;;21.00;99.90;;;;;;4996247;28;20307;-83
2023/08/15 05:38:29;;;;;;;17.27;16.07;;;21.00;99.90;;;;;;5024939;28;20210;-83
2023/08/15 05:40:58;;;;;;;16.87;15.67;;;21.10;99.90;;;;;;5003399;28;20645;-83
2023/08/15 05:43:25;;;;;;;16.17;14.97;;;21.10;99.90;;;;;;5011785;28;20199;-83
2023/08/15 05:45:51;;;;;;;16.90;15.80;;;21.10;99.90;;;;;;5001601;28;20672;-82
2023/08/15 05:48:18;;;;;;;17.87;16.67;;;21.10;99.90;;;;;;5012915;28;20200;-82
2023/08/15 05:50:45;;;;;;;8.60;7.80;;;21.00;99.90;;;;;;4993754;28;20700;-81
2023/08/15 05:53:12;;;;;;;13.97;12.97;;;21.00;99.90;;;;;;5003134;28;20220;-82
2023/08/15 05:55:39;;;;;;;12.67;11.57;;;21.00;99.90;;;;;;5010235;28;20259;-83
2023/08/15 05:58:07;;;;;;;10.63;9.73;;;21.10;99.90;;;;;;5010164;28;20200;-82
2023/08/15 06:00:34;;;;;;;12.33;11.33;;;21.10;99.90;;;;;;5011534;28;20283;-83
2023/08/15 06:03:10;;;;;;;12.17;11.27;;;21.20;99.90;;;;;;5104258;27;20577;-83
2023/08/15 06:05:37;;;;;;;18.70;17.60;;;21.30;99.90;;;;;;5114042;28;20246;-84
2023/08/15 06:08:04;;;;;;;9.27;7.67;;;21.30;99.90;;;;;;5102642;28;20205;-80
2023/08/15 06:10:31;;;;;;;7.80;7.10;;;21.30;99.90;;;;;;5099946;28;20218;-80
2023/08/15 06:13:00;;;;;;;7.80;7.10;;;21.40;99.90;;;;;;5086572;28;20209;-85
2023/08/15 06:15:27;;;;;;;7.57;6.90;;;21.40;99.90;;;;;;5091437;28;20481;-79
2023/08/15 06:17:58;;;;;;;7.60;6.90;;;21.50;99.90;;;;;;5080144;28;20683;-85
2023/08/15 06:20:29;;;;;;;8.77;6.60;;;21.50;99.90;;;;;;5087003;28;20213;-82
2023/08/15 06:22:56;;;;;;;7.57;6.87;;;21.60;99.90;;;;;;5086842;28;20397;-82
2023/08/15 06:25:23;;;;;;;6.80;6.20;;;21.80;99.90;;;;;;5089226;28;20277;-83
2023/08/15 06:27:53;;;;;;;6.87;6.27;;;22.00;99.90;;;;;;5086785;28;20279;-85
2023/08/15 06:30:26;;;;;;;9.77;9.00;;;22.30;99.90;;;;;;5076733;28;20276;-83
2023/08/15 06:32:53;;;;;;;7.03;6.37;;;22.50;99.90;;;;;;5086939;28;20190;-79
2023/08/15 06:35:26;;;;;;;13.20;12.30;;;22.70;99.90;;;;;;5088231;28;20190;-80
2023/08/15 06:37:55;;;;;;;14.20;13.23;;;22.80;99.90;;;;;;5086883;28;20285;-79
2023/08/15 06:40:22;;;;;;;12.73;11.73;;;23.00;99.90;;;;;;5087936;28;20206;-79
2023/08/15 06:42:48;;;;;;;7.27;6.57;;;23.20;99.90;;;;;;5088060;28;20201;-78
2023/08/15 06:45:16;;;;;;;8.40;7.00;;;23.30;99.90;;;;;;5084667;28;20202;-79
2023/08/15 06:47:43;;;;;;;7.73;6.47;;;23.60;99.90;;;;;;5082967;28;20198;-79
2023/08/15 06:50:10;;;;;;;10.50;9.70;;;23.90;99.90;;;;;;5086376;28;20214;-82
2023/08/15 06:55:45;;;;;;;6.80;6.20;;;24.20;99.90;;;;;;5097536;28;20199;-81
2023/08/15 06:58:15;;;;;;;9.50;8.67;;;24.40;99.90;;;;;;5090709;28;20202;-82
2023/08/15 07:00:48;;;;;;;11.00;10.03;;;24.40;99.90;;;;;;5086848;28;20236;-81
2023/08/15 07:03:33;;;;;;;;;;;;;;;;;;;;;
2023/08/15 07:06:04;;;;;;;10.43;9.47;;;24.20;99.90;;;;;;5086217;28;20207;-81
2023/08/15 07:08:36;;;;;;;10.77;8.97;;;24.20;99.90;;;;;;5088420;28;20182;-81
2023/08/15 07:11:07;;;;;;;9.33;8.53;;;24.20;99.90;;;;;;5090727;28;20229;-81
2023/08/15 07:13:37;;;;;;;13.03;12.03;;;24.30;99.90;;;;;;5079037;28;20191;-81
2023/08/15 07:16:06;;;;;;;12.73;11.83;;;24.50;99.90;;;;;;5074123;28;20656;-81
2023/08/15 07:18:34;;;;;;;7.93;7.13;;;24.60;99.90;;;;;;5074694;28;20198;-81
2023/08/15 07:21:07;;;;;;;9.00;7.63;;;24.60;99.90;;;;;;5073858;28;20663;-80
2023/08/15 07:23:35;;;;;;;10.23;9.43;;;24.60;99.90;;;;;;5073862;28;20630;-78
2023/08/15 07:26:02;;;;;;;11.80;10.90;;;24.80;99.90;;;;;;5075861;28;20572;-81
2023/08/15 07:28:30;;;;;;;7.37;6.67;;;24.90;99.90;;;;;;5080954;28;20185;-80
2023/08/15 07:30:57;;;;;;;14.30;13.30;;;24.90;99.90;;;;;;5077590;28;20222;-80
2023/08/15 07:33:24;;;;;;;13.40;12.50;;;25.00;99.90;;;;;;5065726;28;20205;-79
2023/08/15 07:35:51;;;;;;;14.23;13.20;;;25.10;99.90;;;;;;5074168;28;20699;-80
2023/08/15 07:38:18;;;;;;;12.03;11.13;;;25.20;99.90;;;;;;5077526;28;20209;-80
2023/08/15 07:40:47;;;;;;;14.80;13.80;;;25.30;99.90;;;;;;5074076;28;20214;-80
2023/08/15 07:43:13;;;;;;;6.87;6.03;;;25.40;99.90;;;;;;5074045;28;20210;-80
2023/08/15 07:45:41;;;;;;;11.60;10.70;;;25.50;99.90;;;;;;5072905;28;20215;-80
2023/08/15 07:48:08;;;;;;;10.77;10.07;;;25.50;99.90;;;;;;5074029;28;20206;-80
2023/08/15 07:50:36;;;;;;;10.90;10.00;;;25.60;99.90;;;;;;5079243;28;20221;-82
2023/08/15 07:53:03;;;;;;;10.87;10.03;;;25.60;99.90;;;;;;5070929;28;20205;-80
2023/08/15 07:55:30;;;;;;;11.33;10.30;;;25.70;99.90;;;;;;5074739;28;20191;-81
2023/08/15 07:57:57;;;;;;;11.50;10.40;;;25.70;99.90;;;;;;5073323;28;20233;-81
2023/08/15 08:00:24;;;;;;;10.73;9.93;;;25.60;99.90;;;;;;5075595;28;20214;-81
2023/08/15 08:02:53;;;;;;;12.23;8.57;;;25.40;99.90;;;;;;5073056;28;20219;-80
2023/08/15 08:05:20;;;;;;;9.63;8.83;;;25.20;99.90;;;;;;5075643;28;20194;-78
2023/08/15 08:07:47;;;;;;;10.13;9.10;;;25.10;99.90;;;;;;5076754;28;20571;-78
2023/08/15 08:10:14;;;;;;;9.33;8.53;;;25.00;99.90;;;;;;5081689;28;20222;-78
2023/08/15 08:12:41;;;;;;;9.73;8.77;;;25.10;99.90;;;;;;5075518;28;20183;-78
2023/08/15 08:15:09;;;;;;;8.73;8.03;;;25.30;99.90;;;;;;5077246;28;20209;-78
2023/08/15 08:17:36;;;;;;;9.90;8.90;;;26.00;99.90;;;;;;5074569;28;20295;-79
2023/08/15 08:20:08;;;;;;;11.40;10.40;;;26.40;99.90;;;;;;5081688;28;20226;-78
2023/08/15 08:22:35;;;;;;;8.67;7.87;;;26.90;99.90;;;;;;5077000;28;20289;-79
2023/08/15 08:25:11;;;;;;;10.70;9.80;;;27.50;99.90;;;;;;5091803;28;20214;-78
2023/08/15 08:27:38;;;;;;;12.10;11.20;;;28.10;99.90;;;;;;5076691;28;20190;-79
2023/08/15 08:30:06;;;;;;;8.53;7.30;;;28.70;99.90;;;;;;5076279;28;20713;-77
2023/08/15 08:32:33;;;;;;;7.27;6.57;;;29.20;99.90;;;;;;5075570;28;20199;-79
2023/08/15 08:35:00;;;;;;;8.57;7.87;;;29.60;99.90;;;;;;5081522;28;20209;-81
2023/08/15 08:37:28;;;;;;;7.23;6.63;;;29.70;99.90;;;;;;5078502;28;20195;-81
2023/08/15 08:39:55;;;;;;;11.97;11.07;;;29.90;99.90;;;;;;5072989;28;20191;-80
2023/08/15 08:42:22;;;;;;;11.00;10.10;;;30.10;99.90;;;;;;5073280;28;20254;-81
2023/08/15 08:44:49;;;;;;;11.93;11.03;;;30.00;99.90;;;;;;5089481;28;20284;-79
2023/08/15 08:47:19;;;;;;;11.73;10.67;;;29.90;99.90;;;;;;5078339;28;20198;-79
2023/08/15 08:49:48;;;;;;;12.43;11.53;;;30.00;99.90;;;;;;5074845;28;20206;-80
2023/08/15 08:52:16;;;;;;;12.30;11.20;;;30.20;99.90;;;;;;5074848;28;20191;-80
2023/08/15 08:54:44;;;;;;;11.23;10.33;;;30.70;99.90;;;;;;5082090;28;20203;-80
2023/08/15 08:57:12;;;;;;;10.63;9.83;;;30.70;99.90;;;;;;5077206;28;20272;-79
2023/08/15 08:59:43;;;;;;;11.43;10.53;;;31.10;99.90;;;;;;5077047;28;20205;-78
2023/08/15 09:02:12;;;;;;;11.57;10.33;;;31.30;99.90;;;;;;5069244;28;20219;-78
2023/08/15 09:04:39;;;;;;;6.60;5.97;;;31.60;99.90;;;;;;5075270;28;20504;-79
2023/08/15 09:07:06;;;;;;;6.57;5.73;;;31.80;99.90;;;;;;5075092;28;20202;-78
2023/08/15 09:09:33;;;;;;;6.43;5.82;;;32.00;99.90;;;;;;5075946;28;20202;-78
2023/08/15 09:12:01;;;;;;;7.72;6.18;;;32.10;99.90;;;;;;5075554;28;20305;-79
2023/08/15 09:14:28;;;;;;;10.18;9.45;;;32.40;99.90;;;;;;5076565;28;20190;-78
2023/08/15 09:16:55;;;;;;;10.57;6.93;;;32.50;99.90;;;;;;5076160;28;20619;-79
2023/08/15 09:19:22;;;;;;;10.18;7.55;;;32.30;99.90;;;;;;5076322;28;20214;-80
2023/08/15 09:21:48;;;;;;;5.22;4.72;;;32.20;99.90;;;;;;5076283;28;20217;-78
2023/08/15 09:24:15;;;;;;;8.13;6.07;;;32.50;99.90;;;;;;5075624;28;20660;-80
2023/08/15 09:26:42;;;;;;;6.97;5.53;;;32.80;99.90;;;;;;5077158;28;20277;-79
2023/08/15 09:29:13;;;;;;;9.88;6.47;;;33.10;99.90;;;;;;5078063;28;20195;-79
2023/08/15 09:31:40;;;;;;;6.25;5.22;;;33.30;99.90;;;;;;5076569;28;20309;-80
2023/08/15 09:34:10;;;;;;;9.25;6.03;;;32.90;99.90;;;;;;5077214;28;20190;-79
2023/08/15 09:36:37;;;;;;;8.32;5.32;;;32.50;99.90;;;;;;5062313;28;20194;-78
2023/08/15 09:39:08;;;;;;;7.22;6.03;;;32.10;99.90;;;;;;5069967;28;20252;-79
2023/08/15 09:41:35;;;;;;;7.10;6.40;;;31.60;99.90;;;;;;5071756;28;20214;-79
2023/08/15 09:44:02;;;;;;;7.40;5.70;;;31.20;99.90;;;;;;5077370;28;20214;-79
2023/08/15 09:46:30;;;;;;;6.13;5.05;;;31.00;99.90;;;;;;5074350;28;20213;-81
2023/08/15 09:48:58;;;;;;;8.93;5.53;;;30.80;99.90;;;;;;5075376;28;20209;-80
2023/08/15 09:51:26;;;;;;;8.03;7.23;;;30.80;99.90;;;;;;5075347;28;20233;-80
2023/08/15 09:53:53;;;;;;;7.23;6.63;;;31.20;99.90;;;;;;5079186;28;20206;-79
2023/08/15 09:56:20;;;;;;;6.00;5.40;;;31.50;99.90;;;;;;5077595;28;20209;-80
2023/08/15 09:58:47;;;;;;;5.63;5.10;;;31.40;99.90;;;;;;5073797;28;20194;-80
2023/08/15 10:01:19;;;;;;;7.27;4.83;;;31.50;99.90;;;;;;5083648;28;20704;-81
2023/08/15 10:03:49;;;;;;;5.00;4.60;;;31.70;99.90;;;;;;5074533;28;20222;-81
2023/08/15 10:06:16;;;;;;;5.77;5.17;;;31.50;99.90;;;;;;5088869;28;20190;-80
2023/08/15 10:08:45;;;;;;;5.20;4.70;;;31.60;99.90;;;;;;5074786;28;20284;-80
2023/08/15 10:11:12;;;;;;;4.97;4.57;;;31.80;99.90;;;;;;5076071;28;20218;-80
2023/08/15 10:13:41;;;;;;;4.65;4.00;;;32.30;99.90;;;;;;5074640;28;20538;-80
2023/08/15 10:16:12;;;;;;;6.50;4.40;;;32.50;99.90;;;;;;5075162;28;20199;-81
2023/08/15 10:18:39;;;;;;;4.65;4.15;;;32.50;99.90;;;;;;5074739;28;20225;-80
2023/08/15 10:21:10;;;;;;;3.72;3.42;;;32.60;99.90;;;;;;5077282;28;20233;-80
2023/08/15 10:23:37;;;;;;;4.68;3.88;;;32.40;99.90;;;;;;5067516;28;20210;-81
2023/08/15 10:26:05;;;;;;;4.78;4.28;;;32.10;99.90;;;;;;5074506;28;20252;-80
2023/08/15 10:28:35;;;;;;;5.55;3.72;;;31.80;99.90;;;;;;5075598;28;20201;-80
2023/08/15 10:31:02;;;;;;;3.77;3.47;;;31.60;99.90;;;;;;5072924;28;20229;-80
2023/08/15 10:33:31;;;;;;;4.40;3.80;;;31.20;99.90;;;;;;5075102;28;20193;-81
2023/08/15 10:36:09;;;;;;;4.27;3.87;;;31.00;99.90;;;;;;5074728;28;20310;-79
2023/08/15 10:38:41;;;;;;;4.30;3.90;;;30.80;99.90;;;;;;5072937;28;20202;-82
2023/08/15 10:41:13;;;;;;;5.33;4.80;;;30.90;99.90;;;;;;5074903;28;20222;-81
2023/08/15 10:43:40;;;;;;;5.00;4.50;;;31.30;99.90;;;;;;5076277;28;20265;-80
2023/08/15 10:46:08;;;;;;;4.28;3.88;;;31.90;99.90;;;;;;5081092;28;20266;-81
2023/08/15 10:48:42;;;;;;;5.32;3.95;;;32.40;99.90;;;;;;5077598;28;20211;-80
2023/08/15 10:51:18;;;;;;;4.72;3.55;;;32.80;99.90;;;;;;5077879;28;20214;-81
2023/08/15 10:53:47;;;;;;;4.35;3.80;;;32.90;99.90;;;;;;5089773;28;20190;-80
2023/08/15 10:56:17;;;;;;;4.93;3.78;;;32.60;99.90;;;;;;5079782;28;20210;-80
2023/08/15 10:58:45;;;;;;;4.80;3.55;;;32.00;99.90;;;;;;5080329;28;20198;-80
2023/08/15 11:01:12;;;;;;;5.95;3.60;;;31.70;99.90;;;;;;5078474;28;20238;-79
2023/08/15 11:03:39;;;;;;;4.90;3.70;;;31.30;99.90;;;;;;5082252;28;20213;-80
2023/08/15 11:06:07;;;;;;;4.03;3.63;;;31.10;99.90;;;;;;5078325;28;20210;-80
2023/08/15 11:08:41;;;;;;;4.10;3.70;;;31.10;99.90;;;;;;5077169;28;20203;-80
2023/08/15 11:11:08;;;;;;;5.80;5.40;;;31.50;99.90;;;;;;5077790;28;20241;-83
2023/08/15 11:13:37;;;;;;;5.70;5.20;;;31.70;99.90;;;;;;5077663;28;20210;-81
2023/08/15 11:16:05;;;;;;;5.77;5.13;;;31.70;99.90;;;;;;5075668;28;20290;-80
2023/08/15 11:18:32;;;;;;;6.07;5.00;;;31.50;99.90;;;;;;5076885;28;20207;-80
2023/08/15 11:21:00;;;;;;;5.83;5.33;;;31.40;99.90;;;;;;5074881;28;20272;-81
2023/08/15 11:23:28;;;;;;;5.80;5.30;;;31.50;99.90;;;;;;5087205;28;20206;-81
2023/08/15 11:26:01;;;;;;;6.23;5.63;;;31.40;99.90;;;;;;5078439;28;20289;-81
2023/08/15 11:28:27;;;;;;;5.97;5.57;;;31.40;99.90;;;;;;5082313;28;20202;-81
2023/08/15 11:30:54;;;;;;;5.70;5.13;;;31.50;99.90;;;;;;5078867;28;20218;-79
2023/08/15 11:33:21;;;;;;;5.77;5.37;;;31.60;99.90;;;;;;5076972;28;20779;-80
2023/08/15 11:35:48;;;;;;;5.90;5.40;;;31.70;99.90;;;;;;5076944;28;20198;-81
2023/08/15 11:38:18;;;;;;;6.30;5.70;;;31.70;99.90;;;;;;5074349;28;20586;-81
2023/08/15 11:40:45;;;;;;;5.67;5.07;;;31.70;99.90;;;;;;5080000;28;20774;-81
2023/08/15 11:43:14;;;;;;;6.53;4.90;;;31.60;99.90;;;;;;5077648;28;20283;-80
2023/08/15 11:45:44;;;;;;;6.67;4.13;;;31.40;99.90;;;;;;5077955;28;20198;-80
2023/08/15 11:48:11;;;;;;;4.20;3.73;;;31.30;99.90;;;;;;5078059;28;20202;-81
2023/08/15 11:50:39;;;;;;;4.50;4.10;;;31.20;99.90;;;;;;5082439;28;20786;-80
2023/08/15 11:53:09;;;;;;;5.03;4.57;;;31.20;99.90;;;;;;5072375;28;20215;-80
2023/08/15 11:55:36;;;;;;;5.47;5.07;;;31.00;99.90;;;;;;5075674;28;20248;-79
2023/08/15 11:58:04;;;;;;;5.03;4.63;;;31.00;99.90;;;;;;5075616;28;20286;-79
2023/08/15 12:00:32;;;;;;;7.67;6.97;;;31.00;99.90;;;;;;5073643;28;20218;-78
2023/08/15 12:02:59;;;;;;;8.67;7.90;;;30.80;99.90;;;;;;5075200;28;20705;-79
2023/08/15 12:05:26;;;;;;;7.33;6.60;;;30.70;99.90;;;;;;5074181;28;20198;-79
2023/08/15 12:07:52;;;;;;;7.60;6.90;;;30.50;99.90;;;;;;5072130;28;20190;-78
2023/08/15 12:10:20;;;;;;;7.23;6.53;;;30.40;99.90;;;;;;5072665;28;20275;-77
2023/08/15 12:12:48;;;;;;;7.47;6.97;;;30.30;99.90;;;;;;5066416;28;20609;-79
2023/08/15 12:15:16;;;;;;;6.03;5.53;;;30.20;99.90;;;;;;5072044;28;20210;-78
2023/08/15 12:17:44;;;;;;;5.40;5.00;;;30.20;99.90;;;;;;5074048;28;20337;-80
2023/08/15 12:20:14;;;;;;;7.10;6.60;;;30.20;99.90;;;;;;5071878;28;20624;-79
2023/08/15 12:22:42;;;;;;;6.63;5.20;;;30.10;99.90;;;;;;5066465;28;20199;-79
2023/08/15 12:25:09;;;;;;;5.33;4.83;;;30.20;99.90;;;;;;5070083;28;20199;-79
2023/08/15 12:27:36;;;;;;;6.50;5.90;;;30.10;99.90;;;;;;5070332;28;20215;-78
2023/08/15 12:30:04;;;;;;;5.70;5.20;;;30.10;99.90;;;;;;5073957;28;20218;-78
2023/08/15 12:32:31;;;;;;;5.80;5.40;;;30.00;99.90;;;;;;5082243;28;20567;-79
2023/08/15 12:34:59;;;;;;;5.70;5.10;;;30.00;99.90;;;;;;5089008;28;20197;-79
2023/08/15 12:37:26;;;;;;;6.10;5.60;;;29.90;99.90;;;;;;5072320;28;20207;-79
2023/08/15 12:39:53;;;;;;;7.43;6.70;;;29.90;99.90;;;;;;5073362;28;20618;-79
2023/08/15 12:42:19;;;;;;;6.00;5.40;;;29.90;99.90;;;;;;5071831;28;20186;-79
2023/08/15 12:44:46;;;;;;;7.50;6.90;;;29.80;99.90;;;;;;5073058;28;20210;-79
2023/08/15 12:47:13;;;;;;;5.60;4.17;;;29.80;99.90;;;;;;5072659;28;20728;-79
2023/08/15 12:49:40;;;;;;;6.00;4.60;;;29.70;99.90;;;;;;5072756;28;20203;-79
2023/08/15 12:52:08;;;;;;;5.17;4.10;;;29.70;99.90;;;;;;5072559;28;20191;-79
2023/08/15 12:54:35;;;;;;;7.90;7.30;;;29.80;99.90;;;;;;5071581;28;20203;-79